createdAt,value
2018-04-26T00:01:13.854Z,99.90
2018-04-26T00:03:41.381Z,99.90
2018-04-26T00:06:08.913Z,99.90
2018-04-26T00:08:36.475Z,99.90
2018-04-26T00:11:04.016Z,99.90
2018-04-26T00:13:32.349Z,99.90
2018-04-26T00:15:59.917Z,99.90
2018-04-26T00:18:27.478Z,99.90
2018-04-26T00:20:55.020Z,99.90
2018-04-26T00:23:22.552Z,99.90
2018-04-26T00:25:50.082Z,99.90
2018-04-26T00:28:17.637Z,99.90
2018-04-26T00:30:45.180Z,99.90
2018-04-26T00:33:12.715Z,99.90
2018-04-26T00:35:41.038Z,99.90
2018-04-26T00:38:08.628Z,99.90
2018-04-26T00:40:36.176Z,99.90
2018-04-26T00:43:03.726Z,99.90
2018-04-26T00:45:31.288Z,99.90
2018-04-26T00:47:58.873Z,99.90
2018-04-26T00:50:26.414Z,99.90
2018-04-26T00:52:54.011Z,99.90
2018-04-26T00:55:21.570Z,99.90
2018-04-26T00:57:49.106Z,99.90
2018-04-26T01:00:16.639Z,99.90
2018-04-26T01:02:44.979Z,99.90
2018-04-26T01:05:12.519Z,99.90
2018-04-26T01:07:40.054Z,99.90
2018-04-26T01:10:08.422Z,99.90
2018-04-26T01:12:36.735Z,99.90
2018-04-26T01:15:04.287Z,99.90
2018-04-26T01:17:31.820Z,99.90
2018-04-26T01:19:59.398Z,99.90
2018-04-26T01:22:27.705Z,99.90
2018-04-26T01:24:55.261Z,99.90
2018-04-26T01:27:22.816Z,99.90
2018-04-26T01:29:51.127Z,99.90
2018-04-26T01:32:18.693Z,99.90
2018-04-26T01:34:46.243Z,99.90
2018-04-26T01:37:25.783Z,99.90
2018-04-26T01:39:53.351Z,99.90
2018-04-26T01:42:20.933Z,99.90
2018-04-26T01:44:48.470Z,99.90
2018-04-26T01:47:16.031Z,99.90
2018-04-26T01:49:43.581Z,99.90
2018-04-26T01:52:11.918Z,99.90
2018-04-26T01:54:40.353Z,99.90
2018-04-26T01:57:07.930Z,99.90
2018-04-26T01:59:35.499Z,99.90
2018-04-26T02:02:03.038Z,99.90
2018-04-26T02:04:31.352Z,99.90
2018-04-26T02:06:58.878Z,99.90
2018-04-26T02:09:27.250Z,99.90
2018-04-26T02:11:54.790Z,99.90
2018-04-26T02:14:22.322Z,99.90
2018-04-26T02:16:49.869Z,99.90
2018-04-26T02:19:17.411Z,99.90
2018-04-26T02:21:45.724Z,99.90
2018-04-26T02:26:47.937Z,99.90
2018-04-26T02:29:15.478Z,99.90
2018-04-26T02:31:43.041Z,99.90
2018-04-26T02:34:10.601Z,99.90
2018-04-26T02:36:38.164Z,99.90
2018-04-26T02:39:05.708Z,99.90
2018-04-26T02:41:34.015Z,99.90
2018-04-26T02:44:01.570Z,99.90
2018-04-26T02:46:29.151Z,99.90
2018-04-26T02:48:56.712Z,99.90
2018-04-26T02:51:24.241Z,99.90
2018-04-26T02:53:52.542Z,99.90
2018-04-26T02:56:20.088Z,99.90
2018-04-26T02:58:48.391Z,99.90
2018-04-26T03:01:15.974Z,99.90
2018-04-26T03:03:43.590Z,99.90
2018-04-26T03:06:11.160Z,99.90
2018-04-26T03:08:39.502Z,99.90
2018-04-26T03:11:07.091Z,99.90
2018-04-26T03:13:34.646Z,99.90
2018-04-26T03:16:02.204Z,99.90
2018-04-26T03:18:29.756Z,99.90
2018-04-26T03:20:57.314Z,99.90
2018-04-26T03:23:24.851Z,99.90
2018-04-26T03:25:52.410Z,99.90
2018-04-26T03:28:19.951Z,99.90
2018-04-26T03:30:47.482Z,99.90
2018-04-26T03:33:15.043Z,99.90
2018-04-26T03:35:42.587Z,99.90
2018-04-26T03:38:10.113Z,99.90
2018-04-26T03:40:38.441Z,99.90
2018-04-26T03:43:06.011Z,99.90
2018-04-26T03:45:33.573Z,99.90
2018-04-26T03:48:01.130Z,99.90
2018-04-26T03:50:28.673Z,99.90
2018-04-26T03:52:56.206Z,99.90
2018-04-26T03:55:23.802Z,99.90
2018-04-26T03:57:51.337Z,99.90
2018-04-26T04:00:30.570Z,99.90
2018-04-26T04:03:10.846Z,99.90
2018-04-26T04:05:50.323Z,99.90
2018-04-26T04:08:17.885Z,99.90
2018-04-26T04:10:45.442Z,99.90
2018-04-26T04:13:13.026Z,99.90
2018-04-26T04:15:40.605Z,99.90
2018-04-26T04:18:08.170Z,99.90
2018-04-26T04:20:35.697Z,99.90
2018-04-26T04:23:03.220Z,99.90
2018-04-26T04:25:31.532Z,99.90
2018-04-26T04:27:59.098Z,99.90
2018-04-26T04:30:26.636Z,99.90
2018-04-26T04:32:54.179Z,99.90
2018-04-26T04:35:22.551Z,99.90
2018-04-26T04:37:50.103Z,99.90
2018-04-26T04:40:17.647Z,99.90
2018-04-26T04:42:45.179Z,99.90
2018-04-26T04:45:12.782Z,99.90
2018-04-26T04:47:41.036Z,99.90
2018-04-26T04:50:08.603Z,99.90
2018-04-26T04:52:36.160Z,99.90
2018-04-26T04:55:03.720Z,99.90
2018-04-26T04:57:31.295Z,99.90
2018-04-26T04:59:58.845Z,99.90
2018-04-26T05:02:26.424Z,99.90
2018-04-26T05:04:53.958Z,99.90
2018-04-26T05:07:22.324Z,99.90
2018-04-26T05:09:49.850Z,99.90
2018-04-26T05:12:17.377Z,99.90
2018-04-26T05:14:44.939Z,99.90
2018-04-26T05:17:12.497Z,99.90
2018-04-26T05:19:40.859Z,99.90
2018-04-26T05:22:08.393Z,99.90
2018-04-26T05:24:35.917Z,99.90
2018-04-26T05:27:03.455Z,99.90
2018-04-26T05:29:31.748Z,99.90
2018-04-26T05:32:00.051Z,99.90
2018-04-26T05:34:27.582Z,99.90
2018-04-26T05:36:55.906Z,99.90
2018-04-26T05:39:23.446Z,99.90
2018-04-26T05:41:51.746Z,99.90
2018-04-26T05:44:19.294Z,99.90
2018-04-26T05:46:46.818Z,99.90
2018-04-26T05:49:14.398Z,99.90
2018-04-26T05:51:41.940Z,99.90
2018-04-26T05:54:09.499Z,99.90
2018-04-26T05:56:37.050Z,99.90
2018-04-26T05:59:04.615Z,99.90
2018-04-26T06:01:32.149Z,99.90
2018-04-26T06:03:59.691Z,99.90
2018-04-26T06:06:28.004Z,99.90
2018-04-26T06:08:55.563Z,99.90
2018-04-26T06:11:23.196Z,99.90
2018-04-26T06:13:50.721Z,99.90
2018-04-26T06:16:18.269Z,99.90
2018-04-26T06:18:45.829Z,99.90
2018-04-26T06:21:13.393Z,99.90
2018-04-26T06:23:40.935Z,99.90
2018-04-26T06:26:08.480Z,99.90
2018-04-26T06:28:36.808Z,99.90
2018-04-26T06:31:04.362Z,99.90
2018-04-26T06:33:31.905Z,99.90
2018-04-26T06:36:00.238Z,99.90
2018-04-26T06:38:27.785Z,99.90
2018-04-26T06:40:55.331Z,99.90
2018-04-26T06:43:22.895Z,99.90
2018-04-26T06:45:50.429Z,99.90
2018-04-26T06:48:18.748Z,99.90
2018-04-26T06:50:46.295Z,99.90
2018-04-26T06:53:13.859Z,99.90
2018-04-26T06:55:41.407Z,99.90
2018-04-26T06:58:09.720Z,99.90
2018-04-26T07:00:37.286Z,99.90
2018-04-26T07:03:04.908Z,99.90
2018-04-26T07:05:33.243Z,99.90
2018-04-26T07:08:00.782Z,99.90
2018-04-26T07:10:28.345Z,99.90
2018-04-26T07:12:55.886Z,99.90
2018-04-26T07:15:24.194Z,99.90
2018-04-26T07:17:51.750Z,99.90
2018-04-26T07:20:19.306Z,99.90
2018-04-26T07:22:47.618Z,99.90
2018-04-26T07:25:15.191Z,99.90
2018-04-26T07:27:42.753Z,99.90
2018-04-26T07:30:10.294Z,99.90
2018-04-26T07:32:37.898Z,99.90
2018-04-26T07:35:05.444Z,99.90
2018-04-26T07:37:33.120Z,99.90
2018-04-26T07:40:00.685Z,99.90
2018-04-26T07:42:28.295Z,99.90
2018-04-26T07:44:56.671Z,99.90
2018-04-26T07:47:24.969Z,99.90
2018-04-26T07:49:53.276Z,99.90
2018-04-26T07:52:20.834Z,99.90
2018-04-26T07:54:48.407Z,99.90
2018-04-26T07:57:15.978Z,99.90
2018-04-26T07:59:43.528Z,99.90
2018-04-26T08:02:11.071Z,99.90
2018-04-26T08:04:39.376Z,99.90
2018-04-26T08:07:06.941Z,99.90
2018-04-26T08:09:34.493Z,99.90
2018-04-26T08:12:02.087Z,99.90
2018-04-26T08:14:29.633Z,99.90
2018-04-26T08:16:57.173Z,99.90
2018-04-26T08:19:25.516Z,99.90
2018-04-26T08:21:53.080Z,99.90
2018-04-26T08:24:20.612Z,99.90
2018-04-26T08:26:48.138Z,99.90
2018-04-26T08:29:16.435Z,99.90
2018-04-26T08:31:43.989Z,99.90
2018-04-26T08:34:11.559Z,99.90
2018-04-26T08:36:39.103Z,99.90
2018-04-26T08:39:07.431Z,96.30
2018-04-26T08:41:35.019Z,96.40
2018-04-26T08:44:02.559Z,99.90
2018-04-26T08:46:30.098Z,96.40
2018-04-26T08:48:57.658Z,93.10
2018-04-26T08:51:25.198Z,92.60
2018-04-26T08:53:53.223Z,96.90
2018-04-26T08:56:20.763Z,77.80
2018-04-26T08:58:48.303Z,88.50
2018-04-26T09:01:15.838Z,97.40
2018-04-26T09:03:43.361Z,90.40
2018-04-26T09:06:10.899Z,93.30
2018-04-26T09:08:39.203Z,98.10
2018-04-26T09:11:06.773Z,98.40
2018-04-26T09:13:34.310Z,99.90
2018-04-26T09:16:02.626Z,99.90
2018-04-26T09:18:30.212Z,99.90
2018-04-26T09:20:57.789Z,99.90
2018-04-26T09:23:25.358Z,97.70
2018-04-26T09:25:52.917Z,99.90
2018-04-26T09:28:20.515Z,99.90
2018-04-26T09:30:48.818Z,99.90
2018-04-26T09:33:16.387Z,99.90
2018-04-26T09:35:43.927Z,99.90
2018-04-26T09:38:12.251Z,99.90
2018-04-26T09:40:39.777Z,99.90
2018-04-26T09:43:08.076Z,91.20
2018-04-26T09:45:35.609Z,91.20
2018-04-26T09:48:03.926Z,77.60
2018-04-26T09:50:31.458Z,77.50
2018-04-26T09:52:59.773Z,70.30
2018-04-26T09:55:27.378Z,69.90
2018-04-26T09:57:54.933Z,73.50
2018-04-26T10:00:33.302Z,91.70
2018-04-26T10:03:00.887Z,77.00
2018-04-26T10:05:33.929Z,69.60
2018-04-26T10:08:02.243Z,68.00
2018-04-26T10:10:29.774Z,68.10
2018-04-26T10:12:58.115Z,62.90
2018-04-26T10:15:25.636Z,62.60
2018-04-26T10:17:53.175Z,69.20
2018-04-26T10:20:20.701Z,76.90
2018-04-26T10:22:48.268Z,88.50
2018-04-26T10:25:15.822Z,95.10
2018-04-26T10:27:43.348Z,99.90
2018-04-26T10:30:11.668Z,99.90
2018-04-26T10:32:39.204Z,99.90
2018-04-26T10:35:06.739Z,99.90
2018-04-26T10:37:34.260Z,99.90
2018-04-26T10:40:01.794Z,99.90
2018-04-26T10:42:29.327Z,99.90
2018-04-26T10:44:56.872Z,99.90
2018-04-26T10:47:24.435Z,99.90
2018-04-26T10:49:51.983Z,99.90
2018-04-26T10:52:19.518Z,99.90
2018-04-26T10:54:47.157Z,99.90
2018-04-26T10:57:15.492Z,91.90
2018-04-26T10:59:43.049Z,91.30
2018-04-26T11:02:10.610Z,92.50
2018-04-26T11:04:38.229Z,94.20
2018-04-26T11:07:06.535Z,98.30
2018-04-26T11:09:34.096Z,98.20
2018-04-26T11:12:01.658Z,99.90
2018-04-26T11:14:29.330Z,99.90
2018-04-26T11:16:56.883Z,97.80
2018-04-26T11:19:25.223Z,99.90
2018-04-26T11:21:52.780Z,99.90
2018-04-26T11:24:20.459Z,99.90
2018-04-26T11:26:47.974Z,98.90
2018-04-26T11:29:15.546Z,99.90
2018-04-26T11:31:43.118Z,99.90
2018-04-26T11:34:10.689Z,94.70
2018-04-26T11:36:38.267Z,91.00
2018-04-26T11:39:05.813Z,94.80
2018-04-26T11:41:33.361Z,99.90
2018-04-26T11:44:00.903Z,97.30
2018-04-26T11:46:29.275Z,99.90
2018-04-26T11:48:57.619Z,99.90
2018-04-26T11:51:25.149Z,99.90
2018-04-26T11:53:52.747Z,99.90
2018-04-26T11:56:20.366Z,99.90
2018-04-26T11:58:47.897Z,99.90
2018-04-26T12:01:15.466Z,70.50
2018-04-26T12:03:43.003Z,72.40
2018-04-26T12:06:10.570Z,69.00
2018-04-26T12:08:38.110Z,72.40
2018-04-26T12:11:05.673Z,85.30
2018-04-26T12:13:33.221Z,82.40
2018-04-26T12:16:00.748Z,88.20
2018-04-26T12:18:28.421Z,94.10
2018-04-26T12:20:56.036Z,96.80
2018-04-26T12:23:23.594Z,96.30
2018-04-26T12:25:51.156Z,63.60
2018-04-26T12:28:18.718Z,84.00
2018-04-26T12:30:46.278Z,60.70
2018-04-26T12:33:13.820Z,69.60
2018-04-26T12:35:42.131Z,69.80
2018-04-26T12:38:09.706Z,68.80
2018-04-26T12:40:37.245Z,78.50
2018-04-26T12:43:04.805Z,87.40
2018-04-26T12:45:32.370Z,93.70
2018-04-26T12:48:00.666Z,92.20
2018-04-26T12:50:28.223Z,92.10
2018-04-26T12:52:55.766Z,90.10
2018-04-26T12:55:24.099Z,96.90
2018-04-26T12:57:51.635Z,98.00
2018-04-26T13:00:19.214Z,99.90
2018-04-26T13:02:46.787Z,99.90
2018-04-26T13:05:14.318Z,99.90
2018-04-26T13:07:42.634Z,99.90
2018-04-26T13:10:10.178Z,99.90
2018-04-26T13:12:37.748Z,95.10
2018-04-26T13:15:06.017Z,94.20
2018-04-26T13:17:33.629Z,95.30
2018-04-26T13:20:01.178Z,93.00
2018-04-26T13:22:28.716Z,77.80
2018-04-26T13:24:56.278Z,72.60
2018-04-26T13:27:23.824Z,69.30
2018-04-26T13:29:52.237Z,75.00
2018-04-26T13:32:19.797Z,75.10
2018-04-26T13:34:47.345Z,76.10
2018-04-26T13:37:14.936Z,85.40
2018-04-26T13:39:42.553Z,63.80
2018-04-26T13:42:10.115Z,58.50
2018-04-26T13:44:37.666Z,54.70
2018-04-26T13:47:05.225Z,63.10
2018-04-26T13:49:32.794Z,61.60
2018-04-26T13:52:00.391Z,58.70
2018-04-26T13:54:27.888Z,59.60
2018-04-26T13:56:55.471Z,58.40
2018-04-26T13:59:23.007Z,60.00
2018-04-26T14:01:50.568Z,58.50
2018-04-26T14:04:19.758Z,54.40
2018-04-26T14:06:47.330Z,61.10
2018-04-26T14:09:14.893Z,72.80
2018-04-26T14:11:42.431Z,83.30
2018-04-26T14:14:10.746Z,69.10
2018-04-26T14:16:38.283Z,69.00
2018-04-26T14:19:06.651Z,70.00
2018-04-26T14:21:34.969Z,76.50
2018-04-26T14:24:02.497Z,76.50
2018-04-26T14:26:30.797Z,91.60
2018-04-26T14:28:58.353Z,91.50
2018-04-26T14:31:26.652Z,71.80
2018-04-26T14:33:54.186Z,71.70
2018-04-26T14:36:22.507Z,66.50
2018-04-26T14:38:50.043Z,66.40
2018-04-26T14:41:17.619Z,68.00
2018-04-26T14:43:45.170Z,68.10
2018-04-26T14:46:13.466Z,61.10
2018-04-26T14:48:41.027Z,61.40
2018-04-26T14:51:08.582Z,63.10
2018-04-26T14:53:36.133Z,69.60
2018-04-26T14:56:04.458Z,74.70
2018-04-26T14:58:32.007Z,74.40
2018-04-26T15:00:59.539Z,64.70
2018-04-26T15:03:27.066Z,64.50
2018-04-26T15:05:55.366Z,72.50
2018-04-26T15:08:22.922Z,73.00
2018-04-26T15:10:50.479Z,79.30
2018-04-26T15:13:18.019Z,73.20
2018-04-26T15:15:45.567Z,78.00
2018-04-26T15:18:13.119Z,78.60
2018-04-26T15:20:40.685Z,81.00
2018-04-26T15:23:08.976Z,80.90
2018-04-26T15:25:36.525Z,81.40
2018-04-26T15:28:04.936Z,86.10
2018-04-26T15:30:32.482Z,85.90
2018-04-26T15:33:00.015Z,79.40
2018-04-26T15:35:27.570Z,84.60
2018-04-26T15:37:55.096Z,62.90
2018-04-26T15:40:22.651Z,64.50
2018-04-26T15:42:50.210Z,58.90
2018-04-26T15:45:17.753Z,65.20
2018-04-26T15:47:46.166Z,62.50
2018-04-26T15:50:13.844Z,62.40
2018-04-26T15:52:59.784Z,58.60
2018-04-26T15:55:39.863Z,65.30
2018-04-26T16:01:26.082Z,63.70
2018-04-26T16:04:05.410Z,65.70
2018-04-26T16:06:59.655Z,63.60
2018-04-26T16:09:39.083Z,60.40
2018-04-26T16:12:24.972Z,61.30
2018-04-26T16:15:04.341Z,70.20
2018-04-26T16:17:49.590Z,60.10
2018-04-26T16:20:45.587Z,62.70
2018-04-26T16:23:30.702Z,60.60
2018-04-26T16:26:10.125Z,61.90
2018-04-26T16:28:55.155Z,61.30
2018-04-26T16:31:52.022Z,63.20
2018-04-26T16:34:45.272Z,66.30
2018-04-26T16:37:42.271Z,79.00
2018-04-26T16:40:09.854Z,77.70
2018-04-26T16:42:37.418Z,67.20
2018-04-26T16:45:04.962Z,63.40
2018-04-26T16:47:32.517Z,63.90
2018-04-26T16:50:00.041Z,66.20
2018-04-26T16:52:27.588Z,70.70
2018-04-26T16:54:55.138Z,84.10
2018-04-26T16:57:22.662Z,75.00
2018-04-26T16:59:50.281Z,85.50
2018-04-26T17:02:17.842Z,89.10
2018-04-26T17:04:45.498Z,89.80
2018-04-26T17:07:12.936Z,85.20
2018-04-26T17:09:40.494Z,80.10
2018-04-26T17:12:08.060Z,86.50
2018-04-26T17:14:35.626Z,75.70
2018-04-26T17:17:03.191Z,85.20
2018-04-26T17:19:30.770Z,88.20
2018-04-26T17:21:58.306Z,86.80
2018-04-26T17:24:25.846Z,91.60
2018-04-26T17:26:53.458Z,93.10
2018-04-26T17:29:21.008Z,93.30
2018-04-26T17:31:48.566Z,92.20
2018-04-26T17:34:16.147Z,95.80
2018-04-26T17:36:43.683Z,95.60
2018-04-26T17:39:11.978Z,96.90
2018-04-26T17:41:39.516Z,96.90
2018-04-26T17:44:07.801Z,98.80
2018-04-26T17:46:36.118Z,97.60
2018-04-26T17:49:04.162Z,97.60
2018-04-26T17:51:31.721Z,99.90
2018-04-26T17:54:00.047Z,99.90
2018-04-26T17:56:27.606Z,99.90
2018-04-26T17:58:55.143Z,99.70
2018-04-26T18:01:23.471Z,99.90
2018-04-26T18:03:51.040Z,99.90
2018-04-26T18:06:18.638Z,99.90
2018-04-26T18:08:46.982Z,99.90
2018-04-26T18:11:14.531Z,99.90
2018-04-26T18:13:42.143Z,96.20
2018-04-26T18:16:09.678Z,92.00
2018-04-26T18:18:37.317Z,95.00
2018-04-26T18:21:04.921Z,95.80
2018-04-26T18:23:32.479Z,94.40
2018-04-26T18:26:00.025Z,99.30
2018-04-26T18:28:28.344Z,95.30
2018-04-26T18:30:55.872Z,95.30
2018-04-26T18:33:23.427Z,97.70
2018-04-26T18:35:52.061Z,96.50
2018-04-26T18:38:19.593Z,98.10
2018-04-26T18:40:47.199Z,99.90
2018-04-26T18:43:15.576Z,99.90
2018-04-26T18:45:43.917Z,99.90
2018-04-26T18:48:11.471Z,99.90
2018-04-26T18:50:39.511Z,99.90
2018-04-26T18:53:07.835Z,99.90
2018-04-26T18:55:35.363Z,99.90
2018-04-26T18:58:02.984Z,99.90
2018-04-26T19:00:30.540Z,99.90
2018-04-26T19:02:58.161Z,99.90
2018-04-26T19:05:25.657Z,99.90
2018-04-26T19:07:53.210Z,99.90
2018-04-26T19:10:20.766Z,99.90
2018-04-26T19:12:48.385Z,99.90
2018-04-26T19:15:16.004Z,99.90
2018-04-26T19:17:43.553Z,99.90
2018-04-26T19:20:11.087Z,99.90
2018-04-26T19:22:38.676Z,99.90
2018-04-26T19:25:06.254Z,99.90
2018-04-26T19:27:33.790Z,99.90
2018-04-26T19:30:02.085Z,99.90
2018-04-26T19:32:29.641Z,99.90
2018-04-26T19:34:57.957Z,99.90
2018-04-26T19:37:25.496Z,99.90
2018-04-26T19:39:53.033Z,99.90
2018-04-26T19:42:20.591Z,99.90
2018-04-26T19:44:48.153Z,99.90
2018-04-26T19:47:15.694Z,99.90
2018-04-26T19:49:43.246Z,99.90
2018-04-26T19:52:10.779Z,99.90
2018-04-26T19:54:38.385Z,99.90
2018-04-26T19:57:05.923Z,99.90
2018-04-26T19:59:33.470Z,99.90
2018-04-26T20:02:00.992Z,99.90
2018-04-26T20:04:28.532Z,99.90
2018-04-26T20:06:56.086Z,99.90
2018-04-26T20:09:23.748Z,99.90
2018-04-26T20:11:51.273Z,99.90
2018-04-26T20:14:19.590Z,99.90
2018-04-26T20:16:47.170Z,99.90
2018-04-26T20:19:14.823Z,99.90
2018-04-26T20:21:42.378Z,99.90
2018-04-26T20:24:09.931Z,99.90
2018-04-26T20:26:37.466Z,99.90
2018-04-26T20:29:05.000Z,99.90
2018-04-26T20:31:32.557Z,99.90
2018-04-26T20:34:00.115Z,99.90
2018-04-26T20:36:27.645Z,99.90
2018-04-26T20:38:55.928Z,99.90
2018-04-26T20:41:23.520Z,99.90
2018-04-26T20:43:51.024Z,99.90
2018-04-26T20:46:18.552Z,99.90
2018-04-26T20:48:46.079Z,99.90
2018-04-26T20:51:14.439Z,99.90
2018-04-26T20:53:41.960Z,99.90
2018-04-26T20:56:09.486Z,99.90
2018-04-26T20:58:37.773Z,99.90
2018-04-26T21:01:05.302Z,99.90
2018-04-26T21:03:32.830Z,99.90
2018-04-26T21:06:00.390Z,99.90
2018-04-26T21:08:27.982Z,99.90
2018-04-26T21:10:55.539Z,99.90
2018-04-26T21:13:23.084Z,99.90
2018-04-26T21:15:50.647Z,99.90
2018-04-26T21:18:18.191Z,99.90
2018-04-26T21:20:45.709Z,99.90
2018-04-26T21:23:13.247Z,99.90
2018-04-26T21:25:40.769Z,99.90
2018-04-26T21:28:09.077Z,99.90
2018-04-26T21:30:36.674Z,99.90
2018-04-26T21:33:04.278Z,99.90
2018-04-26T21:35:32.609Z,99.90
2018-04-26T21:38:00.109Z,99.90
2018-04-26T21:40:27.698Z,99.90
2018-04-26T21:42:55.247Z,99.90
2018-04-26T21:45:23.589Z,99.90
2018-04-26T21:47:51.128Z,99.90
2018-04-26T21:50:24.434Z,99.90
2018-04-26T21:52:57.582Z,99.90
2018-04-26T21:55:31.614Z,99.90
2018-04-26T21:58:04.892Z,99.90
2018-04-26T22:00:38.912Z,99.90
2018-04-26T22:03:06.458Z,99.90
2018-04-26T22:05:49.440Z,99.90
2018-04-26T22:08:17.066Z,99.90
2018-04-26T22:10:44.608Z,99.90
2018-04-26T22:13:12.913Z,99.90
2018-04-26T22:15:40.470Z,99.90
2018-04-26T22:18:07.989Z,99.90
2018-04-26T22:20:35.518Z,99.90
2018-04-26T22:23:03.047Z,99.90
2018-04-26T22:25:31.352Z,99.90
2018-04-26T22:27:58.907Z,99.90
2018-04-26T22:30:26.510Z,99.90
2018-04-26T22:32:54.066Z,99.90
2018-04-26T22:35:21.598Z,99.90
2018-04-26T22:37:49.151Z,99.90
2018-04-26T22:40:16.711Z,99.90
2018-04-26T22:42:45.005Z,99.90
2018-04-26T22:45:12.562Z,99.90
2018-04-26T22:47:40.092Z,99.90
2018-04-26T22:50:07.647Z,99.90
2018-04-26T22:52:35.202Z,99.90
2018-04-26T22:55:02.737Z,99.90
2018-04-26T22:57:30.299Z,99.90
2018-04-26T22:59:57.834Z,99.90
2018-04-26T23:02:26.140Z,99.90
2018-04-26T23:04:53.670Z,99.90
2018-04-26T23:07:21.953Z,99.90
2018-04-26T23:09:50.246Z,99.90
2018-04-26T23:12:18.557Z,99.90
2018-04-26T23:14:46.114Z,99.90
2018-04-26T23:17:13.654Z,99.90
2018-04-26T23:19:41.967Z,99.90
2018-04-26T23:22:09.523Z,99.90
2018-04-26T23:24:37.041Z,99.90
2018-04-26T23:27:04.622Z,99.90
2018-04-26T23:29:32.930Z,99.90
2018-04-26T23:32:00.480Z,99.90
2018-04-26T23:34:28.038Z,99.90
2018-04-26T23:36:55.570Z,99.90
2018-04-26T23:39:23.113Z,99.90
2018-04-26T23:41:50.674Z,99.90
2018-04-26T23:44:18.223Z,99.90
2018-04-26T23:46:45.751Z,99.90
2018-04-26T23:49:14.047Z,99.90
2018-04-26T23:51:41.602Z,99.90
2018-04-26T23:54:09.134Z,99.90
2018-04-26T23:56:36.666Z,99.90
2018-04-26T23:59:04.198Z,99.90
